Time;durP1;ratioP1;P1;durP2;ratioP2;P2;SDS_P1;SDS_P2;PMS_P1;PMS_P2;Temp;Humidity;BMP_temperature;BMP_pressure;BME280_temperature;BME280_humidity;BME280_pressure;Samples;Min_cycle;Max_cycle;Signal;HPM_P1;HPM_P2
2022/12/31 00:00:11;;;;;;;;;;;;;;;18.38;46.30;100122.69;5152900;27;19931;-56
2022/12/31 00:02:36;;;;;;;;;;;;;;;18.38;46.40;100109.72;5153335;27;20365;-56
2022/12/31 00:05:03;;;;;;;;;;;;;;;18.38;46.25;100108.91;5153732;27;20293;-57
2022/12/31 00:07:28;;;;;;;;;;;;;;;18.38;46.17;100103.41;5153471;27;19976;-56
2022/12/31 00:09:54;;;;;;;;;;;;;;;18.37;46.25;100099.81;5153815;27;19927;-56
2022/12/31 00:12:19;;;;;;;;;;;;;;;18.37;46.27;100097.06;5148217;27;19930;-57
2022/12/31 00:14:45;;;;;;;;;;;;;;;18.38;46.38;100095.13;5147442;27;19949;-57
2022/12/31 00:17:11;;;;;;;;;;;;;;;18.37;46.10;100093.50;5153855;27;19923;-57
2022/12/31 00:19:36;;;;;;;;;;;;;;;18.37;45.98;100090.75;5153520;27;20232;-56
2022/12/31 00:22:02;;;;;;;;;;;;;;;18.37;46.31;100096.25;5154048;27;19930;-57
2022/12/31 00:24:29;;;;;;;;;;;;;;;18.37;46.16;100088.81;5141258;27;19933;-56
2022/12/31 00:26:55;;;;;;;;;;;;;;;18.37;46.29;100087.97;5132973;28;20506;-56
2022/12/31 00:29:21;;;;;;;;;;;;;;;18.37;46.22;100085.22;5128795;27;19930;-57
2022/12/31 00:31:46;;;;;;;;;;;;;;;18.37;46.33;100090.75;5153465;27;19927;-56
2022/12/31 00:34:12;;;;;;;;;;;;;;;18.36;46.26;100086.34;5144037;27;20461;-56
2022/12/31 00:36:38;;;;;;;;;;;;;;;18.37;46.00;100082.47;5132795;28;19927;-56
2022/12/31 00:39:04;;;;;;;;;;;;;;;18.36;46.31;100081.66;5132790;28;19934;-56
2022/12/31 00:41:30;;;;;;;;;;;;;;;18.37;46.19;100083.28;5113673;28;19932;-57
2022/12/31 00:43:55;;;;;;;;;;;;;;;18.37;46.07;100069.50;5132655;27;19934;-57
2022/12/31 00:46:21;;;;;;;;;;;;;;;18.37;46.39;100075.03;5132722;28;20355;-57
2022/12/31 00:48:47;;;;;;;;;;;;;;;18.37;46.16;100054.91;5114509;28;19923;-57
2022/12/31 00:51:13;;;;;;;;;;;;;;;18.37;46.24;100058.47;5132753;28;19924;-57
2022/12/31 00:53:39;;;;;;;;;;;;;;;18.37;46.27;100043.88;5113524;28;19969;-56
2022/12/31 00:56:06;;;;;;;;;;;;;;;18.37;46.26;100057.66;5132362;27;19923;-57
2022/12/31 00:58:32;;;;;;;;;;;;;;;18.37;46.29;100049.41;5121517;27;20000;-57
2022/12/31 01:00:57;;;;;;;;;;;;;;;18.36;46.10;100040.31;5152673;27;20133;-57
2022/12/31 01:03:23;;;;;;;;;;;;;;;18.36;46.27;100036.72;5149843;27;19923;-56
2022/12/31 01:05:49;;;;;;;;;;;;;;;18.36;46.07;100037.56;5132161;27;20290;-57
2022/12/31 01:08:15;;;;;;;;;;;;;;;18.37;46.11;100038.38;5132530;28;19939;-57
2022/12/31 01:13:26;;;;;;;;;;;;;;;18.37;46.26;100030.09;5130686;27;20046;-57
2022/12/31 01:15:51;;;;;;;;;;;;;;;18.37;46.12;100036.44;5152544;27;19923;-57
2022/12/31 01:18:17;;;;;;;;;;;;;;;18.37;46.27;100043.88;5153261;27;20004;-57
2022/12/31 01:20:43;;;;;;;;;;;;;;;18.36;46.27;100040.31;5152640;27;20294;-56
2022/12/31 01:23:09;;;;;;;;;;;;;;;18.36;46.29;100036.72;5134085;27;19927;-56
2022/12/31 01:25:35;;;;;;;;;;;;;;;18.36;46.31;100034.78;5134019;27;19942;-56
2022/12/31 01:28:01;;;;;;;;;;;;;;;18.36;46.08;100048.56;5152623;27;20363;-56
2022/12/31 01:30:26;;;;;;;;;;;;;;;18.37;46.32;100046.63;5152256;27;20021;-56
2022/12/31 01:32:52;;;;;;;;;;;;;;;18.36;46.01;100031.22;5152913;27;19930;-56
2022/12/31 01:35:17;;;;;;;;;;;;;;;18.37;46.04;100038.38;5152449;27;19927;-57
2022/12/31 01:37:43;;;;;;;;;;;;;;;18.37;46.13;100032.84;5152304;27;19927;-57
2022/12/31 01:40:09;;;;;;;;;;;;;;;18.36;46.15;100039.50;5152669;27;20264;-57
2022/12/31 01:42:34;;;;;;;;;;;;;;;18.37;46.09;100043.88;5152537;27;19958;-57
2022/12/31 01:45:00;;;;;;;;;;;;;;;18.36;46.32;100040.31;5152176;27;19927;-56
2022/12/31 01:47:29;;;;;;;;;;;;;;;18.37;46.27;100043.88;5152387;27;19926;-57
2022/12/31 01:49:57;;;;;;;;;;;;;;;18.37;46.14;100057.66;5152453;27;19974;-56
2022/12/31 01:52:24;;;;;;;;;;;;;;;18.36;46.40;100056.84;5133773;27;20370;-56
2022/12/31 01:54:51;;;;;;;;;;;;;;;18.37;46.22;100046.63;5150833;27;19959;-57
2022/12/31 01:57:16;;;;;;;;;;;;;;;18.36;46.36;100056.03;5152313;27;19958;-56
2022/12/31 01:59:42;;;;;;;;;;;;;;;18.35;46.16;100060.72;5151714;27;19923;-57
2022/12/31 02:02:07;;;;;;;;;;;;;;;18.37;46.18;100065.94;5133491;27;19923;-57
2022/12/31 02:04:33;;;;;;;;;;;;;;;18.36;46.27;100053.28;5151844;27;19927;-57
2022/12/31 02:07:00;;;;;;;;;;;;;;;18.36;46.30;100056.03;5152208;27;19927;-56
2022/12/31 02:09:26;;;;;;;;;;;;;;;18.37;46.31;100046.63;5151672;27;20413;-57
2022/12/31 02:11:51;;;;;;;;;;;;;;;18.36;46.26;100045.81;5152063;27;19923;-57
2022/12/31 02:14:19;;;;;;;;;;;;;;;18.36;46.06;100043.06;5133140;27;19930;-57
2022/12/31 02:16:51;;;;;;;;;;;;;;;18.37;46.23;100035.59;5133515;27;19966;-56
2022/12/31 02:19:36;;;;;;;;;;;;;;;18.36;46.45;100045.81;5151488;27;20006;-56
2022/12/31 02:22:03;;;;;;;;;;;;;;;18.35;46.30;100041.44;5136332;27;19946;-56
2022/12/31 02:24:41;;;;;;;;;;;;;;;18.36;46.38;100047.75;5150946;27;19927;-56
2022/12/31 02:27:12;;;;;;;;;;;;;;;18.36;46.38;100045.81;5151852;27;19961;-57
2022/12/31 02:29:57;;;;;;;;;;;;;;;18.36;46.32;100047.75;5132895;27;19930;-57
2022/12/31 02:32:27;;;;;;;;;;;;;;;18.35;46.18;100054.38;5136211;27;20298;-57
2022/12/31 02:34:54;;;;;;;;;;;;;;;18.36;46.36;100065.13;5151483;27;20283;-56
2022/12/31 02:37:20;;;;;;;;;;;;;;;18.36;46.32;100065.13;5151708;27;19954;-56
2022/12/31 02:39:45;;;;;;;;;;;;;;;18.36;46.19;100058.78;5132988;27;19950;-56
2022/12/31 02:42:11;;;;;;;;;;;;;;;18.36;46.41;100064.28;5151659;27;19952;-56
2022/12/31 02:44:38;;;;;;;;;;;;;;;18.36;46.42;100061.53;5151120;27;19946;-56
2022/12/31 02:49:45;;;;;;;;;;;;;;;18.35;46.28;100057.97;5190014;27;19925;-56
2022/12/31 02:52:16;;;;;;;;;;;;;;;18.35;46.21;100060.72;5189220;27;19941;-56
2022/12/31 02:54:47;;;;;;;;;;;;;;;18.35;46.42;100063.47;5188941;27;20371;-56
2022/12/31 02:57:14;;;;;;;;;;;;;;;18.36;46.40;100056.84;5189792;27;19923;-56
2022/12/31 03:02:42;;;;;;;;;;;;;;;18.37;46.51;100090.75;5153115;27;19987;-56
2022/12/31 03:05:08;;;;;;;;;;;;;;;18.36;46.25;100078.91;5168378;27;19997;-56
2022/12/31 03:07:33;;;;;;;;;;;;;;;18.35;46.41;100088.28;5168491;27;20358;-56
2022/12/31 03:10:00;;;;;;;;;;;;;;;18.35;46.62;100082.78;5168191;27;19927;-56
2022/12/31 03:12:57;;;;;;;;;;;;;;;18.35;46.33;100077.25;5168115;27;19930;-56
2022/12/31 03:15:19;;;;;;;;;;;;;;;18.36;46.40;100083.59;5131833;27;19927;-56
2022/12/31 03:17:49;;;;;;;;;;;;;;;18.36;46.26;100076.16;5147505;27;19927;-56
2022/12/31 03:23:00;;;;;;;;;;;;;;;18.36;46.40;100078.09;5131975;27;19963;-56
2022/12/31 03:25:34;;;;;;;;;;;;;;;18.35;46.50;100065.38;5166187;27;19930;-56
2022/12/31 03:28:01;;;;;;;;;;;;;;;18.35;46.40;100060.72;5168178;27;20247;-56
2022/12/31 03:30:27;;;;;;;;;;;;;;;18.36;46.56;100083.59;5148906;27;20387;-56
2022/12/31 03:32:52;;;;;;;;;;;;;;;18.35;46.62;100092.97;5149544;27;19952;-56
2022/12/31 03:35:19;;;;;;;;;;;;;;;18.36;46.37;100083.59;5167607;27;20282;-56
2022/12/31 03:37:45;;;;;;;;;;;;;;;18.34;46.62;100083.88;5168048;27;19923;-56
2022/12/31 03:40:11;;;;;;;;;;;;;;;18.35;46.65;100102.06;5149285;27;20013;-56
2022/12/31 03:42:36;;;;;;;;;;;;;;;18.36;46.73;100105.66;5168240;27;20058;-56
2022/12/31 03:45:02;;;;;;;;;;;;;;;18.36;46.62;100097.38;5167773;27;19945;-56
2022/12/31 03:47:28;;;;;;;;;;;;;;;18.35;46.50;100102.06;5149086;27;19922;-56
2022/12/31 03:49:53;;;;;;;;;;;;;;;18.36;46.68;100095.44;5168028;27;20003;-56
2022/12/31 03:52:19;;;;;;;;;;;;;;;18.36;46.70;100111.16;5149115;27;19929;-56
2022/12/31 03:54:44;;;;;;;;;;;;;;;18.36;46.69;100098.19;5166692;27;20066;-56
2022/12/31 03:57:10;;;;;;;;;;;;;;;18.35;46.52;100110.34;5167652;27;20378;-56
2022/12/31 03:59:35;;;;;;;;;;;;;;;18.35;46.69;100096.56;5161304;27;19922;-56
2022/12/31 04:02:01;;;;;;;;;;;;;;;18.35;46.76;100095.72;5153699;27;19923;-56
2022/12/31 04:04:27;;;;;;;;;;;;;;;18.36;46.61;100102.91;5152787;27;19946;-56
2022/12/31 04:06:52;;;;;;;;;;;;;;;18.36;46.86;100105.66;5153778;27;20395;-56
2022/12/31 04:09:18;;;;;;;;;;;;;;;18.36;46.61;100102.91;5153604;27;19976;-56
2022/12/31 04:11:43;;;;;;;;;;;;;;;18.36;46.73;100100.13;5153616;27;19927;-56
2022/12/31 04:14:10;;;;;;;;;;;;;;;18.35;46.72;100091.03;5129178;27;20165;-56
2022/12/31 04:16:36;;;;;;;;;;;;;;;18.35;46.70;100093.81;5153459;27;20312;-56
2022/12/31 04:19:01;;;;;;;;;;;;;;;18.36;46.51;100083.59;5153491;27;20378;-56
2022/12/31 04:21:27;;;;;;;;;;;;;;;18.34;46.76;100081.13;5153455;27;19923;-56
2022/12/31 04:24:00;;;;;;;;;;;;;;;18.36;46.67;100089.09;5152922;27;20362;-56
2022/12/31 04:26:26;;;;;;;;;;;;;;;18.36;46.81;100086.34;5152908;27;19962;-56
2022/12/31 04:28:51;;;;;;;;;;;;;;;18.36;46.68;100094.63;5152442;27;19927;-56
2022/12/31 04:31:17;;;;;;;;;;;;;;;18.34;46.64;100083.88;5152802;27;19927;-56
2022/12/31 04:33:42;;;;;;;;;;;;;;;18.35;46.94;100095.72;5152761;27;20302;-56
2022/12/31 04:36:08;;;;;;;;;;;;;;;18.35;46.77;100101.22;5153210;27;20261;-56
2022/12/31 04:38:34;;;;;;;;;;;;;;;18.36;46.82;100105.66;5153093;27;20394;-56
2022/12/31 04:41:30;;;;;;;;;;;;;;;18.36;46.86;100114.72;5153096;27;19972;-56
2022/12/31 04:43:46;;;;;;;;;;;;;;;18.35;46.63;100118.63;5137217;27;20011;-56
2022/12/31 04:46:12;;;;;;;;;;;;;;;18.35;46.90;100103.97;5153075;27;19960;-58
2022/12/31 04:48:37;;;;;;;;;;;;;;;18.36;46.77;100106.47;5153150;27;20291;-56
2022/12/31 04:51:03;;;;;;;;;;;;;;;18.35;46.78;100106.75;5153017;27;19930;-56
2022/12/31 04:53:28;;;;;;;;;;;;;;;18.35;46.81;100096.56;5152762;27;20568;-56
2022/12/31 04:55:54;;;;;;;;;;;;;;;18.36;46.68;100109.22;5133874;27;19933;-55
2022/12/31 04:58:20;;;;;;;;;;;;;;;18.35;47.03;100104.84;5134138;27;20302;-56
2022/12/31 05:00:48;;;;;;;;;;;;;;;18.36;46.88;100113.91;5152551;27;19930;-56
2022/12/31 05:03:14;;;;;;;;;;;;;;;18.36;46.78;100114.72;5134058;27;19923;-56
2022/12/31 05:05:41;;;;;;;;;;;;;;;18.37;46.94;100104.53;5152223;27;19978;-56
2022/12/31 05:08:07;;;;;;;;;;;;;;;18.35;46.93;100102.06;5152234;27;19923;-56
2022/12/31 05:10:33;;;;;;;;;;;;;;;18.35;46.98;100113.09;5133917;27;20048;-56
2022/12/31 05:12:59;;;;;;;;;;;;;;;18.35;47.03;100107.59;5151801;27;19930;-56
2022/12/31 05:15:24;;;;;;;;;;;;;;;18.36;46.83;100100.13;5152307;27;19927;-56
2022/12/31 05:17:50;;;;;;;;;;;;;;;18.35;46.89;100103.97;5152632;27;20324;-56
2022/12/31 05:20:15;;;;;;;;;;;;;;;18.35;46.90;100102.06;5152624;27;19931;-56
2022/12/31 05:22:41;;;;;;;;;;;;;;;18.35;47.01;100098.47;5133449;27;19930;-56
2022/12/31 05:25:07;;;;;;;;;;;;;;;18.36;46.87;100102.91;5151921;27;19923;-55
2022/12/31 05:27:32;;;;;;;;;;;;;;;18.35;46.83;100110.34;5132974;27;20336;-56
2022/12/31 05:29:58;;;;;;;;;;;;;;;18.35;46.82;100126.88;5151502;27;19960;-56
2022/12/31 05:32:23;;;;;;;;;;;;;;;18.36;46.76;100124.94;5152358;27;20005;-56
2022/12/31 05:34:49;;;;;;;;;;;;;;;18.35;46.76;100123.28;5137251;27;19980;-56
2022/12/31 05:37:15;;;;;;;;;;;;;;;18.36;46.86;100130.47;5131054;28;19931;-56
2022/12/31 05:39:40;;;;;;;;;;;;;;;18.36;46.77;100127.69;5131491;28;20276;-56
2022/12/31 05:42:06;;;;;;;;;;;;;;;18.36;47.14;100141.47;5130913;28;19927;-56
2022/12/31 05:44:31;;;;;;;;;;;;;;;18.35;47.11;100132.41;5112552;28;19949;-56
2022/12/31 05:46:57;;;;;;;;;;;;;;;18.35;47.12;100120.53;5131075;28;19923;-56
2022/12/31 05:49:22;;;;;;;;;;;;;;;18.36;46.89;100124.94;5131131;28;20295;-56
2022/12/31 05:51:48;;;;;;;;;;;;;;;18.35;47.14;100124.13;5131371;28;19934;-56
2022/12/31 05:54:14;;;;;;;;;;;;;;;18.35;47.14;100131.56;5130953;27;20479;-56
2022/12/31 05:56:39;;;;;;;;;;;;;;;18.35;47.17;100126.88;5131420;28;19935;-55
2022/12/31 05:59:05;;;;;;;;;;;;;;;18.36;47.08;100136.78;5142734;27;19927;-56
2022/12/31 06:01:30;;;;;;;;;;;;;;;18.34;46.89;100141.75;5151222;27;19923;-56
2022/12/31 06:03:56;;;;;;;;;;;;;;;18.35;46.97;100132.41;5144622;27;19927;-56
2022/12/31 06:06:22;;;;;;;;;;;;;;;18.36;47.00;100141.47;5131083;28;19923;-56
2022/12/31 06:08:48;;;;;;;;;;;;;;;18.35;46.99;100157.22;5130052;28;19931;-56
2022/12/31 06:11:13;;;;;;;;;;;;;;;18.35;47.20;100151.69;5130906;28;19924;-56
2022/12/31 06:13:39;;;;;;;;;;;;;;;18.35;47.08;100167.38;5147167;27;20076;-56
2022/12/31 06:16:05;;;;;;;;;;;;;;;18.36;47.17;100152.50;5151688;27;19934;-56
2022/12/31 06:18:31;;;;;;;;;;;;;;;18.35;47.21;100154.44;5133157;27;19949;-56
2022/12/31 06:20:57;;;;;;;;;;;;;;;18.35;47.17;100165.47;5151758;27;20367;-56
2022/12/31 06:23:22;;;;;;;;;;;;;;;18.36;47.05;100191.91;5131612;27;20479;-56
2022/12/31 06:25:48;;;;;;;;;;;;;;;18.35;47.11;100193.03;5151198;27;20324;-56
2022/12/31 06:28:13;;;;;;;;;;;;;;;18.36;47.23;100182.84;5150752;27;19931;-56
2022/12/31 06:30:46;;;;;;;;;;;;;;;18.36;47.11;100182.84;5133900;27;19927;-56
2022/12/31 06:33:11;;;;;;;;;;;;;;;18.36;47.26;100182.84;5151386;27;19923;-56
2022/12/31 06:35:37;;;;;;;;;;;;;;;18.37;47.12;100178.94;5146465;27;19924;-56
2022/12/31 06:38:02;;;;;;;;;;;;;;;18.36;47.08;100186.41;5151282;27;20352;-56
2022/12/31 06:40:28;;;;;;;;;;;;;;;18.35;47.15;100193.03;5151385;27;19930;-56
2022/12/31 06:42:53;;;;;;;;;;;;;;;18.36;47.05;100196.63;5150697;27;19935;-56
2022/12/31 06:45:25;;;;;;;;;;;;;;;18.36;47.11;100210.41;5150697;27;19927;-56
2022/12/31 06:47:50;;;;;;;;;;;;;;;18.36;47.19;100213.16;5150678;27;19958;-56
2022/12/31 06:50:16;;;;;;;;;;;;;;;18.36;47.28;100216.72;5151184;27;19923;-56
2022/12/31 06:52:42;;;;;;;;;;;;;;;18.36;47.16;100229.69;5151390;27;19929;-56
2022/12/31 06:55:08;;;;;;;;;;;;;;;18.36;47.31;100213.97;5150029;27;20290;-56
2022/12/31 06:57:33;;;;;;;;;;;;;;;18.36;47.09;100221.44;5150973;27;19930;-56
2022/12/31 06:59:59;;;;;;;;;;;;;;;18.35;47.31;100228.88;5150530;27;19963;-56
2022/12/31 07:02:31;;;;;;;;;;;;;;;18.35;47.17;100236.28;5150296;27;20029;-56
2022/12/31 07:05:17;;;;;;;;;;;;;;;18.36;47.19;100257.25;5150644;27;19930;-56
2022/12/31 07:07:47;;;;;;;;;;;;;;;18.36;47.17;100251.75;5134890;27;19962;-56
2022/12/31 07:10:32;;;;;;;;;;;;;;;18.36;47.26;100243.47;5132363;27;19923;-56
2022/12/31 07:13:17;;;;;;;;;;;;;;;18.36;47.40;100255.31;5135008;27;20400;-56
2022/12/31 07:16:01;;;;;;;;;;;;;;;18.36;47.39;100266.34;5131280;27;19969;-56
2022/12/31 07:18:47;;;;;;;;;;;;;;;18.35;47.46;100256.44;5132255;27;19934;-56
2022/12/31 07:21:14;;;;;;;;;;;;;;;18.35;47.20;100248.16;5134780;27;19927;-56
2022/12/31 07:23:39;;;;;;;;;;;;;;;18.36;47.28;100252.56;5149842;27;19945;-56
2022/12/31 07:26:06;;;;;;;;;;;;;;;18.35;47.42;100239.91;5150701;27;20386;-56
2022/12/31 07:28:37;;;;;;;;;;;;;;;18.36;47.48;100249.00;5150461;27;19976;-56
2022/12/31 07:31:06;;;;;;;;;;;;;;;18.35;47.31;100242.66;5131722;27;20354;-56
2022/12/31 07:33:37;;;;;;;;;;;;;;;18.35;47.40;100242.66;5149991;27;19930;-55
2022/12/31 07:36:22;;;;;;;;;;;;;;;18.36;47.61;100257.25;5152277;27;19923;-56
2022/12/31 07:38:50;;;;;;;;;;;;;;;18.37;47.27;100253.38;5138720;27;19961;-56
2022/12/31 07:41:16;;;;;;;;;;;;;;;18.35;47.38;100250.09;5153710;27;19946;-56
2022/12/31 07:43:50;;;;;;;;;;;;;;;18.35;47.42;100256.44;5135411;27;19930;-56
2022/12/31 07:46:35;;;;;;;;;;;;;;;18.36;47.37;100265.53;5153654;27;19934;-56
2022/12/31 07:49:01;;;;;;;;;;;;;;;18.36;47.61;100246.22;5138134;27;19923;-56
2022/12/31 07:55:13;;;;;;;;;;;;;;;18.35;47.52;100256.44;5149624;27;20279;-56
2022/12/31 07:57:42;;;;;;;;;;;;;;;18.35;47.37;100270.22;5153430;27;19974;-56
2022/12/31 08:00:10;;;;;;;;;;;;;;;18.35;47.57;100261.97;5133042;28;19923;-56
2022/12/31 08:02:56;;;;;;;;;;;;;;;18.36;47.56;100280.13;5132656;28;19927;-56
2022/12/31 08:05:28;;;;;;;;;;;;;;;18.35;47.43;100275.75;5136077;27;19927;-56
2022/12/31 08:08:00;;;;;;;;;;;;;;;18.36;47.50;100298.63;5135069;27;19934;-56
2022/12/31 08:10:28;;;;;;;;;;;;;;;18.36;47.52;100290.34;5153697;27;20241;-56
2022/12/31 08:12:54;;;;;;;;;;;;;;;18.36;47.37;100298.63;5153515;27;19934;-56
2022/12/31 08:15:20;;;;;;;;;;;;;;;18.36;47.42;100304.13;5153262;27;19936;-56
2022/12/31 08:17:53;;;;;;;;;;;;;;;18.35;47.60;100299.69;5153744;27;19948;-56
2022/12/31 08:20:19;;;;;;;;;;;;;;;18.35;47.63;100300.56;5153129;27;19923;-56
2022/12/31 08:22:50;;;;;;;;;;;;;;;18.36;47.38;100287.59;5153112;27;19927;-56
2022/12/31 08:25:17;;;;;;;;;;;;;;;18.37;47.39;100309.34;5152915;27;20344;-56
2022/12/31 08:27:47;;;;;;;;;;;;;;;18.37;47.56;100308.53;5153126;27;19923;-56
2022/12/31 08:30:13;;;;;;;;;;;;;;;18.36;47.39;100310.47;5134549;27;19948;-56
2022/12/31 08:32:57;;;;;;;;;;;;;;;18.37;47.50;100303.00;5134414;27;20264;-56
2022/12/31 08:35:43;;;;;;;;;;;;;;;18.36;47.48;100309.63;5132662;27;19927;-56
2022/12/31 08:38:11;;;;;;;;;;;;;;;18.35;47.43;100303.31;5137577;27;19966;-56
2022/12/31 08:40:44;;;;;;;;;;;;;;;18.37;47.68;100305.75;5153544;27;19930;-56
2022/12/31 08:43:15;;;;;;;;;;;;;;;18.35;47.56;100314.34;5153311;27;19954;-56
2022/12/31 08:45:42;;;;;;;;;;;;;;;18.36;47.49;100327.00;5152623;27;19923;-56
2022/12/31 08:48:25;;;;;;;;;;;;;;;18.36;47.46;100349.06;5134439;27;19923;-56
2022/12/31 08:50:51;;;;;;;;;;;;;;;18.36;47.41;100339.97;5134407;27;19934;-56
2022/12/31 08:53:17;;;;;;;;;;;;;;;18.36;47.48;100345.47;5133976;27;19927;-56
2022/12/31 08:55:42;;;;;;;;;;;;;;;18.36;47.55;100346.28;5152104;27;19947;-56
2022/12/31 08:58:28;;;;;;;;;;;;;;;18.37;47.67;100344.34;5152737;27;19931;-56
2022/12/31 09:00:54;;;;;;;;;;;;;;;18.37;47.42;100349.88;5153048;27;19948;-56
2022/12/31 09:03:24;;;;;;;;;;;;;;;18.36;47.55;100345.47;5152629;27;20286;-56
2022/12/31 09:06:07;;;;;;;;;;;;;;;18.36;47.67;100348.22;5134059;27;20059;-55
2022/12/31 09:08:53;;;;;;;;;;;;;;;18.36;47.54;100353.75;5152628;27;19970;-56
2022/12/31 09:11:20;;;;;;;;;;;;;;;18.37;47.48;100363.66;5136637;27;19930;-56
2022/12/31 09:14:08;;;;;;;;;;;;;;;18.36;47.52;100373.03;5158968;27;20291;-56
2022/12/31 09:16:38;;;;;;;;;;;;;;;18.36;47.57;100384.88;5116570;28;19931;-56
2022/12/31 09:19:03;;;;;;;;;;;;;;;18.35;47.59;100383.25;5132123;28;20317;-56
2022/12/31 09:21:31;;;;;;;;;;;;;;;18.36;47.73;100398.69;5131383;28;20444;-55
2022/12/31 09:23:57;;;;;;;;;;;;;;;18.36;47.57;100403.38;5131089;27;20360;-56
2022/12/31 09:26:34;;;;;;;;;;;;;;;18.37;47.74;100427.06;5131399;28;19970;-56
2022/12/31 09:29:03;;;;;;;;;;;;;;;18.36;47.68;100428.19;5142229;27;20383;-56
2022/12/31 09:31:31;;;;;;;;;;;;;;;18.36;47.67;100437.28;5151271;27;19923;-56
2022/12/31 09:33:59;;;;;;;;;;;;;;;18.37;47.52;100429.81;5127956;27;19928;-56
2022/12/31 09:36:29;;;;;;;;;;;;;;;18.36;47.69;100444.72;5149021;27;20290;-56
2022/12/31 09:38:59;;;;;;;;;;;;;;;18.36;47.72;100434.50;5150582;27;20381;-56
2022/12/31 09:41:32;;;;;;;;;;;;;;;18.35;47.78;100435.63;5152354;27;19944;-56
2022/12/31 09:44:18;;;;;;;;;;;;;;;18.36;47.68;100439.19;5146273;27;19939;-55
2022/12/31 09:47:03;;;;;;;;;;;;;;;18.36;47.70;100450.22;5116041;28;19976;-56
2022/12/31 09:49:35;;;;;;;;;;;;;;;18.36;47.54;100451.06;5116010;28;20425;-56
2022/12/31 09:52:07;;;;;;;;;;;;;;;18.36;47.69;100445.53;5131284;28;19928;-56
2022/12/31 09:54:53;;;;;;;;;;;;;;;18.35;47.55;100452.16;5130729;27;19932;-56
2022/12/31 09:57:39;;;;;;;;;;;;;;;18.36;47.54;100464.84;5115373;27;20445;-56
2022/12/31 10:00:10;;;;;;;;;;;;;;;18.36;47.56;100464.84;5115676;28;19931;-56
2022/12/31 10:02:41;;;;;;;;;;;;;;;18.36;47.66;100467.59;5130550;28;19935;-56
2022/12/31 10:05:14;;;;;;;;;;;;;;;18.36;47.81;100477.81;5132886;27;19927;-56
2022/12/31 10:07:43;;;;;;;;;;;;;;;18.37;47.50;100485.78;5151885;27;19943;-56
2022/12/31 10:10:20;;;;;;;;;;;;;;;18.36;47.67;100464.84;5151917;27;19930;-56
2022/12/31 10:13:05;;;;;;;;;;;;;;;18.37;47.79;100477.50;5150840;27;19976;-56
2022/12/31 10:15:37;;;;;;;;;;;;;;;18.36;47.66;100489.66;5135641;27;19972;-55
2022/12/31 10:18:06;;;;;;;;;;;;;;;18.37;47.81;100487.72;5151599;27;19927;-55
2022/12/31 10:20:51;;;;;;;;;;;;;;;18.36;47.63;100488.81;5151637;27;19923;-56
2022/12/31 10:23:24;;;;;;;;;;;;;;;18.36;47.56;100478.63;5135775;27;19938;-56
2022/12/31 10:26:10;;;;;;;;;;;;;;;18.36;47.77;100473.09;5151338;27;19926;-56
2022/12/31 10:28:39;;;;;;;;;;;;;;;18.36;47.63;100486.88;5135618;27;19976;-56
2022/12/31 10:31:12;;;;;;;;;;;;;;;18.36;47.81;100489.66;5151482;27;19930;-56
2022/12/31 10:33:52;;;;;;;;;;;;;;;18.36;47.74;100480.56;5151110;27;19943;-55
2022/12/31 10:36:19;;;;;;;;;;;;;;;18.35;47.71;100489.91;5150787;27;20440;-56
2022/12/31 10:39:02;;;;;;;;;;;;;;;18.36;47.66;100475.03;5148917;27;19927;-56
2022/12/31 10:41:42;;;;;;;;;;;;;;;18.36;47.77;100488.81;5150886;27;20326;-56
2022/12/31 10:44:16;;;;;;;;;;;;;;;18.35;47.91;100474.22;5143509;27;19938;-56
2022/12/31 10:46:47;;;;;;;;;;;;;;;18.35;47.96;100470.63;5130199;28;19930;-56
2022/12/31 10:49:33;;;;;;;;;;;;;;;18.36;47.76;100461.25;5130554;28;20280;-55
2022/12/31 10:52:18;;;;;;;;;;;;;;;18.36;47.64;100462.06;5115055;28;19923;-56
2022/12/31 10:55:04;;;;;;;;;;;;;;;18.37;47.86;100460.97;5114714;28;20169;-56
2022/12/31 11:00:13;;;;;;;;;;;;;;;18.36;47.81;100456.56;5189618;27;19925;-56
2022/12/31 11:02:41;;;;;;;;;;;;;;;18.36;47.90;100464.03;5183876;27;19934;-55
2022/12/31 11:05:10;;;;;;;;;;;;;;;18.36;47.79;100464.03;5168351;27;19958;-56
2022/12/31 11:07:56;;;;;;;;;;;;;;;18.36;47.93;100467.59;5168625;27;20359;-56
2022/12/31 11:10:41;;;;;;;;;;;;;;;18.36;47.94;100464.03;5153094;27;19923;-56
2022/12/31 11:13:27;;;;;;;;;;;;;;;18.36;47.72;100467.59;5155842;27;19923;-56
2022/12/31 11:15:56;;;;;;;;;;;;;;;18.37;47.73;100465.66;5149896;27;19968;-56
2022/12/31 11:18:26;;;;;;;;;;;;;;;18.35;48.01;100460.44;5168632;27;20398;-56
2022/12/31 11:21:05;;;;;;;;;;;;;;;18.35;48.10;100463.19;5168388;27;19931;-56
2022/12/31 11:23:34;;;;;;;;;;;;;;;18.35;47.91;100460.44;5168022;27;20371;-56
2022/12/31 11:26:19;;;;;;;;;;;;;;;18.36;47.94;100462.06;5167873;27;19969;-56
2022/12/31 11:28:49;;;;;;;;;;;;;;;18.36;47.98;100462.06;5152203;27;19931;-56
2022/12/31 11:31:19;;;;;;;;;;;;;;;18.36;47.75;100469.53;5168528;27;19966;-56
2022/12/31 11:34:05;;;;;;;;;;;;;;;18.37;47.80;100482.19;5149534;27;20387;-56
2022/12/31 11:36:50;;;;;;;;;;;;;;;18.36;47.91;100464.84;5152679;27;20015;-56
2022/12/31 11:39:23;;;;;;;;;;;;;;;18.36;47.81;100464.84;5152308;27;19923;-56
2022/12/31 11:42:16;;;;;;;;;;;;;;;18.37;47.74;100468.41;5150402;27;19930;-56
2022/12/31 11:45:01;;;;;;;;;;;;;;;18.36;47.76;100473.09;5151492;27;19969;-56
2022/12/31 11:47:41;;;;;;;;;;;;;;;18.35;47.92;100468.72;5152453;27;19949;-56
2022/12/31 11:53:13;;;;;;;;;;;;;;;18.36;47.74;100478.63;5189810;27;19925;-56
2022/12/31 11:55:42;;;;;;;;;;;;;;;18.37;47.79;100469.22;5184570;27;19923;-56
2022/12/31 11:58:13;;;;;;;;;;;;;;;18.37;47.72;100477.50;5189681;27;19961;-56
2022/12/31 12:00:39;;;;;;;;;;;;;;;18.37;47.93;100480.25;5189355;27;19923;-56
2022/12/31 12:03:05;;;;;;;;;;;;;;;18.37;47.81;100487.72;5180026;27;19927;-56
2022/12/31 12:05:30;;;;;;;;;;;;;;;18.37;47.78;100476.69;5149777;27;19923;-56
2022/12/31 12:07:56;;;;;;;;;;;;;;;18.37;48.02;100477.50;5149972;27;19934;-56
2022/12/31 12:10:26;;;;;;;;;;;;;;;18.37;47.80;100485.78;5149895;27;19930;-56
2022/12/31 12:13:08;;;;;;;;;;;;;;;18.37;48.04;100482.19;5158889;27;20350;-55
2022/12/31 12:15:34;;;;;;;;;;;;;;;18.37;47.85;100473.94;5148655;27;19962;-56
2022/12/31 12:18:04;;;;;;;;;;;;;;;18.37;47.86;100469.22;5168619;27;19950;-55
2022/12/31 12:20:30;;;;;;;;;;;;;;;18.37;48.02;100465.66;5149864;27;20376;-55
2022/12/31 12:22:57;;;;;;;;;;;;;;;18.37;47.75;100469.22;5168058;27;19929;-56
2022/12/31 12:25:24;;;;;;;;;;;;;;;18.37;47.86;100468.41;5167908;27;20046;-56
2022/12/31 12:27:49;;;;;;;;;;;;;;;18.37;47.94;100469.22;5168138;27;19930;-56
2022/12/31 12:30:30;;;;;;;;;;;;;;;18.37;48.06;100483.03;5167789;27;19927;-56
2022/12/31 12:32:57;;;;;;;;;;;;;;;18.36;47.92;100461.25;5168188;27;19959;-56
2022/12/31 12:35:24;;;;;;;;;;;;;;;18.36;47.77;100462.06;5167712;27;19923;-56
2022/12/31 12:37:58;;;;;;;;;;;;;;;18.37;47.81;100458.19;5149626;27;19923;-56
2022/12/31 12:40:23;;;;;;;;;;;;;;;18.36;47.85;100462.06;5167894;27;19961;-55
2022/12/31 12:42:58;;;;;;;;;;;;;;;18.37;47.85;100472.00;5168021;27;19984;-56
2022/12/31 12:45:25;;;;;;;;;;;;;;;18.37;48.15;100465.66;5167534;27;19923;-56
2022/12/31 12:47:54;;;;;;;;;;;;;;;18.37;47.81;100472.00;5148773;27;19980;-56
2022/12/31 12:50:21;;;;;;;;;;;;;;;18.37;47.89;100463.72;5149287;27;19949;-56
2022/12/31 12:53:06;;;;;;;;;;;;;;;18.37;47.87;100471.16;5149086;27;19927;-56
2022/12/31 12:55:52;;;;;;;;;;;;;;;18.37;47.76;100488.53;5167505;27;19959;-56
2022/12/31 13:01:01;;;;;;;;;;;;;;;18.37;47.83;100494.03;5190378;27;20070;-56
2022/12/31 13:03:47;;;;;;;;;;;;;;;18.37;47.92;100499.56;5176594;27;19930;-55
2022/12/31 13:06:35;;;;;;;;;;;;;;;18.37;47.91;100516.09;5141461;27;19934;-56
2022/12/31 13:09:08;;;;;;;;;;;;;;;18.36;48.22;100503.44;5168875;27;19927;-56
2022/12/31 13:11:52;;;;;;;;;;;;;;;18.37;48.09;100498.75;5160738;27;20432;-56